sensor_id;sensor_type;location;lat;lon;timestamp;temperature;humidity
57242;DHT22;43095;53.302;5.786;2024-02-23T00:01:26;5.30;99.20
57242;DHT22;43095;53.302;5.786;2024-02-23T00:03:54;5.20;99.10
57242;DHT22;43095;53.302;5.786;2024-02-23T00:06:22;5.20;99.40
57242;DHT22;43095;53.302;5.786;2024-02-23T00:08:54;5.20;99.50
57242;DHT22;43095;53.302;5.786;2024-02-23T00:11:22;5.30;99.60
57242;DHT22;43095;53.302;5.786;2024-02-23T00:13:50;5.30;98.40
57242;DHT22;43095;53.302;5.786;2024-02-23T00:16:18;5.30;97.10
57242;DHT22;43095;53.302;5.786;2024-02-23T00:18:45;5.30;96.80
57242;DHT22;43095;53.302;5.786;2024-02-23T00:21:12;5.30;95.50
57242;DHT22;43095;53.302;5.786;2024-02-23T00:23:40;5.30;95.70
57242;DHT22;43095;53.302;5.786;2024-02-23T00:26:07;5.30;95.50
57242;DHT22;43095;53.302;5.786;2024-02-23T00:28:35;5.20;94.90
57242;DHT22;43095;53.302;5.786;2024-02-23T00:31:03;5.10;94.60
57242;DHT22;43095;53.302;5.786;2024-02-23T00:33:30;5.10;94.00
57242;DHT22;43095;53.302;5.786;2024-02-23T00:35:57;5.00;94.60
57242;DHT22;43095;53.302;5.786;2024-02-23T00:38:25;5.00;94.80
57242;DHT22;43095;53.302;5.786;2024-02-23T00:40:52;5.00;95.20
57242;DHT22;43095;53.302;5.786;2024-02-23T00:43:19;5.10;95.40
57242;DHT22;43095;53.302;5.786;2024-02-23T00:45:47;5.30;95.60
57242;DHT22;43095;53.302;5.786;2024-02-23T00:48:14;5.30;95.60
57242;DHT22;43095;53.302;5.786;2024-02-23T00:50:44;5.40;95.50
57242;DHT22;43095;53.302;5.786;2024-02-23T00:53:12;5.50;95.80
57242;DHT22;43095;53.302;5.786;2024-02-23T00:55:39;5.50;95.70
57242;DHT22;43095;53.302;5.786;2024-02-23T00:58:07;5.50;95.70
57242;DHT22;43095;53.302;5.786;2024-02-23T01:00:34;5.50;95.30
57242;DHT22;43095;53.302;5.786;2024-02-23T01:03:01;5.60;92.90
57242;DHT22;43095;53.302;5.786;2024-02-23T01:05:29;5.70;91.60
57242;DHT22;43095;53.302;5.786;2024-02-23T01:07:56;5.80;91.20
57242;DHT22;43095;53.302;5.786;2024-02-23T01:10:24;5.80;91.50
57242;DHT22;43095;53.302;5.786;2024-02-23T01:12:51;5.80;91.20
57242;DHT22;43095;53.302;5.786;2024-02-23T01:15:18;5.80;90.50
57242;DHT22;43095;53.302;5.786;2024-02-23T01:17:46;5.80;90.10
57242;DHT22;43095;53.302;5.786;2024-02-23T01:20:13;5.80;90.10
57242;DHT22;43095;53.302;5.786;2024-02-23T01:22:40;5.70;90.40
57242;DHT22;43095;53.302;5.786;2024-02-23T01:25:08;5.70;90.50
57242;DHT22;43095;53.302;5.786;2024-02-23T01:27:35;5.70;90.00
57242;DHT22;43095;53.302;5.786;2024-02-23T01:30:05;5.70;90.10
57242;DHT22;43095;53.302;5.786;2024-02-23T01:32:35;5.70;89.60
57242;DHT22;43095;53.302;5.786;2024-02-23T01:35:08;5.70;89.10
57242;DHT22;43095;53.302;5.786;2024-02-23T01:37:35;5.80;89.70
57242;DHT22;43095;53.302;5.786;2024-02-23T01:40:04;5.70;88.60
57242;DHT22;43095;53.302;5.786;2024-02-23T01:42:33;5.70;89.00
57242;DHT22;43095;53.302;5.786;2024-02-23T01:45:00;5.70;88.60
57242;DHT22;43095;53.302;5.786;2024-02-23T01:47:29;5.70;88.30
57242;DHT22;43095;53.302;5.786;2024-02-23T01:50:00;5.70;87.80
57242;DHT22;43095;53.302;5.786;2024-02-23T01:52:28;5.70;88.30
57242;DHT22;43095;53.302;5.786;2024-02-23T01:54:56;5.70;88.50
57242;DHT22;43095;53.302;5.786;2024-02-23T01:57:24;5.60;88.60
57242;DHT22;43095;53.302;5.786;2024-02-23T02:00:16;5.50;88.20
57242;DHT22;43095;53.302;5.786;2024-02-23T02:02:51;5.40;87.50
57242;DHT22;43095;53.302;5.786;2024-02-23T02:05:18;5.30;88.20
57242;DHT22;43095;53.302;5.786;2024-02-23T02:07:47;5.30;89.40
57242;DHT22;43095;53.302;5.786;2024-02-23T02:10:20;5.30;89.90
57242;DHT22;43095;53.302;5.786;2024-02-23T02:12:48;5.40;89.80
57242;DHT22;43095;53.302;5.786;2024-02-23T02:15:16;5.50;89.40
57242;DHT22;43095;53.302;5.786;2024-02-23T02:17:43;5.50;89.00
57242;DHT22;43095;53.302;5.786;2024-02-23T02:20:13;5.50;88.30
57242;DHT22;43095;53.302;5.786;2024-02-23T02:22:41;5.40;88.40
57242;DHT22;43095;53.302;5.786;2024-02-23T02:25:08;5.50;88.80
57242;DHT22;43095;53.302;5.786;2024-02-23T02:27:35;5.40;89.00
57242;DHT22;43095;53.302;5.786;2024-02-23T02:30:03;5.30;89.00
57242;DHT22;43095;53.302;5.786;2024-02-23T02:32:31;5.30;89.00
57242;DHT22;43095;53.302;5.786;2024-02-23T02:35:04;5.30;88.80
57242;DHT22;43095;53.302;5.786;2024-02-23T02:37:31;5.30;89.20
57242;DHT22;43095;53.302;5.786;2024-02-23T02:39:59;5.30;89.30
57242;DHT22;43095;53.302;5.786;2024-02-23T02:42:26;5.30;89.40
57242;DHT22;43095;53.302;5.786;2024-02-23T02:44:55;5.30;89.60
57242;DHT22;43095;53.302;5.786;2024-02-23T02:47:23;5.30;89.20
57242;DHT22;43095;53.302;5.786;2024-02-23T02:49:51;5.30;89.40
57242;DHT22;43095;53.302;5.786;2024-02-23T02:52:18;5.30;89.10
57242;DHT22;43095;53.302;5.786;2024-02-23T02:54:47;5.30;89.50
57242;DHT22;43095;53.302;5.786;2024-02-23T02:57:16;5.30;89.30
57242;DHT22;43095;53.302;5.786;2024-02-23T02:59:43;5.30;88.50
57242;DHT22;43095;53.302;5.786;2024-02-23T03:02:12;5.20;84.30
57242;DHT22;43095;53.302;5.786;2024-02-23T03:04:39;5.10;84.70
57242;DHT22;43095;53.302;5.786;2024-02-23T03:07:13;5.20;86.30
57242;DHT22;43095;53.302;5.786;2024-02-23T03:09:41;5.20;87.20
57242;DHT22;43095;53.302;5.786;2024-02-23T03:12:09;5.10;87.90
57242;DHT22;43095;53.302;5.786;2024-02-23T03:14:37;5.10;88.10
57242;DHT22;43095;53.302;5.786;2024-02-23T03:17:08;5.20;88.40
57242;DHT22;43095;53.302;5.786;2024-02-23T03:19:37;5.10;88.50
57242;DHT22;43095;53.302;5.786;2024-02-23T03:22:05;5.20;88.60
57242;DHT22;43095;53.302;5.786;2024-02-23T03:24:32;5.20;88.90
57242;DHT22;43095;53.302;5.786;2024-02-23T03:27:00;5.20;89.10
57242;DHT22;43095;53.302;5.786;2024-02-23T03:29:27;5.20;88.70
57242;DHT22;43095;53.302;5.786;2024-02-23T03:31:58;5.10;88.90
57242;DHT22;43095;53.302;5.786;2024-02-23T03:34:25;5.10;88.40
57242;DHT22;43095;53.302;5.786;2024-02-23T03:36:53;5.10;88.50
57242;DHT22;43095;53.302;5.786;2024-02-23T03:39:20;5.20;88.80
57242;DHT22;43095;53.302;5.786;2024-02-23T03:41:47;5.20;89.10
57242;DHT22;43095;53.302;5.786;2024-02-23T03:44:14;5.20;89.30
57242;DHT22;43095;53.302;5.786;2024-02-23T03:46:42;5.30;89.80
57242;DHT22;43095;53.302;5.786;2024-02-23T03:49:09;5.30;89.80
57242;DHT22;43095;53.302;5.786;2024-02-23T03:51:37;5.30;89.70
57242;DHT22;43095;53.302;5.786;2024-02-23T03:54:06;5.20;89.70
57242;DHT22;43095;53.302;5.786;2024-02-23T03:56:40;5.20;89.90
57242;DHT22;43095;53.302;5.786;2024-02-23T03:59:09;5.10;90.10
57242;DHT22;43095;53.302;5.786;2024-02-23T04:01:38;5.10;90.20
57242;DHT22;43095;53.302;5.786;2024-02-23T04:04:07;5.10;90.20
57242;DHT22;43095;53.302;5.786;2024-02-23T04:06:34;5.10;90.00
57242;DHT22;43095;53.302;5.786;2024-02-23T04:09:02;5.10;89.90
57242;DHT22;43095;53.302;5.786;2024-02-23T04:11:33;5.10;89.90
57242;DHT22;43095;53.302;5.786;2024-02-23T04:14:01;5.10;89.90
57242;DHT22;43095;53.302;5.786;2024-02-23T04:16:28;5.10;89.40
57242;DHT22;43095;53.302;5.786;2024-02-23T04:18:56;5.10;89.20
57242;DHT22;43095;53.302;5.786;2024-02-23T04:21:24;5.10;88.90
57242;DHT22;43095;53.302;5.786;2024-02-23T04:23:51;5.20;88.60
57242;DHT22;43095;53.302;5.786;2024-02-23T04:26:18;5.10;88.90
57242;DHT22;43095;53.302;5.786;2024-02-23T04:28:46;5.20;89.00
57242;DHT22;43095;53.302;5.786;2024-02-23T04:31:13;5.20;89.00
57242;DHT22;43095;53.302;5.786;2024-02-23T04:33:41;5.20;89.10
57242;DHT22;43095;53.302;5.786;2024-02-23T04:36:08;5.20;89.00
57242;DHT22;43095;53.302;5.786;2024-02-23T04:38:38;5.30;89.10
57242;DHT22;43095;53.302;5.786;2024-02-23T04:41:06;5.20;89.00
57242;DHT22;43095;53.302;5.786;2024-02-23T04:43:34;5.30;89.20
57242;DHT22;43095;53.302;5.786;2024-02-23T04:46:01;5.20;89.10
57242;DHT22;43095;53.302;5.786;2024-02-23T04:48:29;5.20;89.20
57242;DHT22;43095;53.302;5.786;2024-02-23T04:50:58;5.30;89.10
57242;DHT22;43095;53.302;5.786;2024-02-23T04:53:25;5.30;89.00
57242;DHT22;43095;53.302;5.786;2024-02-23T04:55:52;5.30;88.90
57242;DHT22;43095;53.302;5.786;2024-02-23T04:58:20;5.30;89.00
57242;DHT22;43095;53.302;5.786;2024-02-23T05:00:47;5.30;89.20
57242;DHT22;43095;53.302;5.786;2024-02-23T05:03:15;5.30;89.30
57242;DHT22;43095;53.302;5.786;2024-02-23T05:05:43;5.20;89.40
57242;DHT22;43095;53.302;5.786;2024-02-23T05:08:10;5.20;89.40
57242;DHT22;43095;53.302;5.786;2024-02-23T05:10:37;5.10;89.60
57242;DHT22;43095;53.302;5.786;2024-02-23T05:13:05;5.10;89.60
57242;DHT22;43095;53.302;5.786;2024-02-23T05:15:32;5.10;89.60
57242;DHT22;43095;53.302;5.786;2024-02-23T05:17:59;5.10;89.70
57242;DHT22;43095;53.302;5.786;2024-02-23T05:20:26;5.10;89.80
57242;DHT22;43095;53.302;5.786;2024-02-23T05:22:54;5.00;89.90
57242;DHT22;43095;53.302;5.786;2024-02-23T05:25:21;5.00;89.90
57242;DHT22;43095;53.302;5.786;2024-02-23T05:27:48;5.00;90.00
57242;DHT22;43095;53.302;5.786;2024-02-23T05:30:16;5.00;90.00
57242;DHT22;43095;53.302;5.786;2024-02-23T05:32:43;5.00;90.20
57242;DHT22;43095;53.302;5.786;2024-02-23T05:35:11;4.90;90.40
57242;DHT22;43095;53.302;5.786;2024-02-23T05:37:38;4.90;90.40
57242;DHT22;43095;53.302;5.786;2024-02-23T05:40:06;4.90;90.30
57242;DHT22;43095;53.302;5.786;2024-02-23T05:42:37;4.90;90.40
57242;DHT22;43095;53.302;5.786;2024-02-23T05:45:07;4.90;90.50
57242;DHT22;43095;53.302;5.786;2024-02-23T05:47:38;4.90;90.60
57242;DHT22;43095;53.302;5.786;2024-02-23T05:50:09;4.80;90.60
57242;DHT22;43095;53.302;5.786;2024-02-23T05:52:36;4.70;90.80
57242;DHT22;43095;53.302;5.786;2024-02-23T05:55:04;4.70;90.90
57242;DHT22;43095;53.302;5.786;2024-02-23T05:57:31;4.70;91.00
57242;DHT22;43095;53.302;5.786;2024-02-23T05:59:59;4.70;91.20
57242;DHT22;43095;53.302;5.786;2024-02-23T06:02:26;4.60;91.30
57242;DHT22;43095;53.302;5.786;2024-02-23T06:04:53;4.60;91.50
57242;DHT22;43095;53.302;5.786;2024-02-23T06:07:21;4.50;91.60
57242;DHT22;43095;53.302;5.786;2024-02-23T06:09:55;4.50;91.70
57242;DHT22;43095;53.302;5.786;2024-02-23T06:12:24;4.50;91.80
57242;DHT22;43095;53.302;5.786;2024-02-23T06:14:51;4.50;91.90
57242;DHT22;43095;53.302;5.786;2024-02-23T06:17:19;4.50;91.90
57242;DHT22;43095;53.302;5.786;2024-02-23T06:19:46;4.50;92.00
57242;DHT22;43095;53.302;5.786;2024-02-23T06:22:13;4.40;92.10
57242;DHT22;43095;53.302;5.786;2024-02-23T06:24:43;4.40;92.20
57242;DHT22;43095;53.302;5.786;2024-02-23T06:27:10;4.40;92.30
57242;DHT22;43095;53.302;5.786;2024-02-23T06:29:38;4.40;92.50
57242;DHT22;43095;53.302;5.786;2024-02-23T06:32:06;4.40;92.50
57242;DHT22;43095;53.302;5.786;2024-02-23T06:34:33;4.50;92.50
57242;DHT22;43095;53.302;5.786;2024-02-23T06:37:00;4.50;92.50
57242;DHT22;43095;53.302;5.786;2024-02-23T06:39:28;4.50;92.40
57242;DHT22;43095;53.302;5.786;2024-02-23T06:41:55;4.50;92.50
57242;DHT22;43095;53.302;5.786;2024-02-23T06:44:24;4.40;92.60
57242;DHT22;43095;53.302;5.786;2024-02-23T06:46:51;4.40;92.80
57242;DHT22;43095;53.302;5.786;2024-02-23T06:49:19;4.40;93.00
57242;DHT22;43095;53.302;5.786;2024-02-23T06:51:46;4.40;93.50
57242;DHT22;43095;53.302;5.786;2024-02-23T06:54:13;4.40;94.10
57242;DHT22;43095;53.302;5.786;2024-02-23T06:56:40;4.40;94.40
57242;DHT22;43095;53.302;5.786;2024-02-23T06:59:07;4.50;94.70
57242;DHT22;43095;53.302;5.786;2024-02-23T07:01:35;4.50;95.00
57242;DHT22;43095;53.302;5.786;2024-02-23T07:04:06;4.50;95.00
57242;DHT22;43095;53.302;5.786;2024-02-23T07:06:34;4.50;95.10
57242;DHT22;43095;53.302;5.786;2024-02-23T07:09:03;4.50;95.20
57242;DHT22;43095;53.302;5.786;2024-02-23T07:11:30;4.50;95.40
57242;DHT22;43095;53.302;5.786;2024-02-23T07:13:58;4.50;95.60
57242;DHT22;43095;53.302;5.786;2024-02-23T07:16:25;4.50;95.50
57242;DHT22;43095;53.302;5.786;2024-02-23T07:18:52;4.50;95.70
57242;DHT22;43095;53.302;5.786;2024-02-23T07:21:21;4.50;95.80
57242;DHT22;43095;53.302;5.786;2024-02-23T07:23:48;4.60;96.10
57242;DHT22;43095;53.302;5.786;2024-02-23T07:26:16;4.60;96.10
57242;DHT22;43095;53.302;5.786;2024-02-23T07:28:43;4.60;96.20
57242;DHT22;43095;53.302;5.786;2024-02-23T07:31:10;4.70;96.40
57242;DHT22;43095;53.302;5.786;2024-02-23T07:33:38;4.70;96.30
57242;DHT22;43095;53.302;5.786;2024-02-23T07:36:06;4.70;96.40
57242;DHT22;43095;53.302;5.786;2024-02-23T07:38:35;4.70;96.40
57242;DHT22;43095;53.302;5.786;2024-02-23T07:41:03;4.70;96.40
57242;DHT22;43095;53.302;5.786;2024-02-23T07:43:30;4.70;96.40
57242;DHT22;43095;53.302;5.786;2024-02-23T07:45:57;4.70;96.50
57242;DHT22;43095;53.302;5.786;2024-02-23T07:48:25;4.70;96.50
57242;DHT22;43095;53.302;5.786;2024-02-23T07:50:52;4.70;96.40
57242;DHT22;43095;53.302;5.786;2024-02-23T07:53:19;4.70;96.40
57242;DHT22;43095;53.302;5.786;2024-02-23T07:55:47;4.70;96.30
57242;DHT22;43095;53.302;5.786;2024-02-23T07:58:14;4.70;96.40
57242;DHT22;43095;53.302;5.786;2024-02-23T08:00:41;4.80;96.30
57242;DHT22;43095;53.302;5.786;2024-02-23T08:03:09;4.90;96.20
57242;DHT22;43095;53.302;5.786;2024-02-23T08:05:37;4.90;96.20
57242;DHT22;43095;53.302;5.786;2024-02-23T08:08:05;4.90;96.40
57242;DHT22;43095;53.302;5.786;2024-02-23T08:10:34;5.00;96.50
57242;DHT22;43095;53.302;5.786;2024-02-23T08:13:01;5.00;96.70
57242;DHT22;43095;53.302;5.786;2024-02-23T08:15:28;5.10;96.80
57242;DHT22;43095;53.302;5.786;2024-02-23T08:17:56;5.10;97.10
57242;DHT22;43095;53.302;5.786;2024-02-23T08:20:23;5.20;97.10
57242;DHT22;43095;53.302;5.786;2024-02-23T08:22:50;5.30;97.20
57242;DHT22;43095;53.302;5.786;2024-02-23T08:25:21;5.40;97.10
57242;DHT22;43095;53.302;5.786;2024-02-23T08:27:53;5.50;96.80
57242;DHT22;43095;53.302;5.786;2024-02-23T08:30:20;5.50;96.80
57242;DHT22;43095;53.302;5.786;2024-02-23T08:32:47;5.60;96.70
57242;DHT22;43095;53.302;5.786;2024-02-23T08:35:15;5.60;96.40
57242;DHT22;43095;53.302;5.786;2024-02-23T08:37:43;5.60;96.30
57242;DHT22;43095;53.302;5.786;2024-02-23T08:40:11;5.60;96.00
57242;DHT22;43095;53.302;5.786;2024-02-23T08:42:38;5.60;96.00
57242;DHT22;43095;53.302;5.786;2024-02-23T08:45:07;5.60;95.90
57242;DHT22;43095;53.302;5.786;2024-02-23T08:47:35;5.60;95.90
57242;DHT22;43095;53.302;5.786;2024-02-23T08:50:03;5.60;95.90
57242;DHT22;43095;53.302;5.786;2024-02-23T08:52:31;5.60;95.90
57242;DHT22;43095;53.302;5.786;2024-02-23T08:54:58;5.60;96.00
57242;DHT22;43095;53.302;5.786;2024-02-23T08:57:27;5.60;96.00
57242;DHT22;43095;53.302;5.786;2024-02-23T08:59:55;5.60;95.80
57242;DHT22;43095;53.302;5.786;2024-02-23T09:02:25;5.50;95.70
57242;DHT22;43095;53.302;5.786;2024-02-23T09:04:53;5.50;95.60
57242;DHT22;43095;53.302;5.786;2024-02-23T09:07:20;5.50;95.50
57242;DHT22;43095;53.302;5.786;2024-02-23T09:09:48;5.50;95.50
57242;DHT22;43095;53.302;5.786;2024-02-23T09:12:16;5.50;95.30
57242;DHT22;43095;53.302;5.786;2024-02-23T09:14:44;5.50;95.30
57242;DHT22;43095;53.302;5.786;2024-02-23T09:17:11;5.50;95.30
57242;DHT22;43095;53.302;5.786;2024-02-23T09:19:39;5.50;95.20
57242;DHT22;43095;53.302;5.786;2024-02-23T09:22:07;5.50;95.30
57242;DHT22;43095;53.302;5.786;2024-02-23T09:24:34;5.40;95.30
57242;DHT22;43095;53.302;5.786;2024-02-23T09:27:02;5.40;95.00
57242;DHT22;43095;53.302;5.786;2024-02-23T09:29:30;5.40;95.00
57242;DHT22;43095;53.302;5.786;2024-02-23T09:31:57;5.40;95.00
57242;DHT22;43095;53.302;5.786;2024-02-23T09:34:25;5.30;94.60
57242;DHT22;43095;53.302;5.786;2024-02-23T09:36:53;5.30;94.60
57242;DHT22;43095;53.302;5.786;2024-02-23T09:39:20;5.40;94.60
57242;DHT22;43095;53.302;5.786;2024-02-23T09:41:50;5.30;94.70
57242;DHT22;43095;53.302;5.786;2024-02-23T09:44:18;5.30;94.80
57242;DHT22;43095;53.302;5.786;2024-02-23T09:46:49;5.30;94.90
57242;DHT22;43095;53.302;5.786;2024-02-23T09:49:16;5.30;95.10
57242;DHT22;43095;53.302;5.786;2024-02-23T09:51:44;5.30;95.10
57242;DHT22;43095;53.302;5.786;2024-02-23T09:54:11;5.30;95.30
57242;DHT22;43095;53.302;5.786;2024-02-23T09:56:39;5.30;95.50
57242;DHT22;43095;53.302;5.786;2024-02-23T09:59:07;5.30;95.60
57242;DHT22;43095;53.302;5.786;2024-02-23T10:01:34;5.30;96.10
57242;DHT22;43095;53.302;5.786;2024-02-23T10:04:04;5.10;95.90
57242;DHT22;43095;53.302;5.786;2024-02-23T10:06:33;5.00;96.00
57242;DHT22;43095;53.302;5.786;2024-02-23T10:09:01;4.90;96.10
57242;DHT22;43095;53.302;5.786;2024-02-23T10:11:31;4.90;96.50
57242;DHT22;43095;53.302;5.786;2024-02-23T10:13:59;4.80;96.90
57242;DHT22;43095;53.302;5.786;2024-02-23T10:16:26;4.70;97.50
57242;DHT22;43095;53.302;5.786;2024-02-23T10:18:53;4.70;97.90
57242;DHT22;43095;53.302;5.786;2024-02-23T10:21:21;4.70;98.10
57242;DHT22;43095;53.302;5.786;2024-02-23T10:23:48;4.70;98.50
57242;DHT22;43095;53.302;5.786;2024-02-23T10:26:17;4.90;98.80
57242;DHT22;43095;53.302;5.786;2024-02-23T10:28:46;5.00;98.90
57242;DHT22;43095;53.302;5.786;2024-02-23T10:31:14;5.00;98.90
57242;DHT22;43095;53.302;5.786;2024-02-23T10:33:46;5.00;98.80
57242;DHT22;43095;53.302;5.786;2024-02-23T10:36:16;5.10;98.80
57242;DHT22;43095;53.302;5.786;2024-02-23T10:38:48;5.10;98.90
57242;DHT22;43095;53.302;5.786;2024-02-23T10:41:17;5.10;98.70
57242;DHT22;43095;53.302;5.786;2024-02-23T10:43:48;5.10;98.70
57242;DHT22;43095;53.302;5.786;2024-02-23T10:46:16;5.10;98.80
57242;DHT22;43095;53.302;5.786;2024-02-23T10:48:45;5.10;98.80
57242;DHT22;43095;53.302;5.786;2024-02-23T10:51:14;5.20;98.80
57242;DHT22;43095;53.302;5.786;2024-02-23T10:53:48;5.20;98.80
57242;DHT22;43095;53.302;5.786;2024-02-23T10:56:17;5.30;98.70
57242;DHT22;43095;53.302;5.786;2024-02-23T10:58:44;5.30;98.90
57242;DHT22;43095;53.302;5.786;2024-02-23T11:01:13;5.30;98.90
57242;DHT22;43095;53.302;5.786;2024-02-23T11:03:43;5.40;99.00
57242;DHT22;43095;53.302;5.786;2024-02-23T11:06:15;5.50;99.20
57242;DHT22;43095;53.302;5.786;2024-02-23T11:08:48;5.60;99.30
57242;DHT22;43095;53.302;5.786;2024-02-23T11:11:17;5.60;99.20
57242;DHT22;43095;53.302;5.786;2024-02-23T11:13:45;5.70;98.80
57242;DHT22;43095;53.302;5.786;2024-02-23T11:16:22;5.80;98.80
57242;DHT22;43095;53.302;5.786;2024-02-23T11:19:04;5.80;98.60
57242;DHT22;43095;53.302;5.786;2024-02-23T11:21:36;5.80;98.40
57242;DHT22;43095;53.302;5.786;2024-02-23T11:24:05;5.90;98.20
57242;DHT22;43095;53.302;5.786;2024-02-23T11:26:32;5.90;97.90
57242;DHT22;43095;53.302;5.786;2024-02-23T11:29:11;5.90;97.90
57242;DHT22;43095;53.302;5.786;2024-02-23T11:31:45;5.90;97.80
57242;DHT22;43095;53.302;5.786;2024-02-23T11:34:13;5.90;97.80
57242;DHT22;43095;53.302;5.786;2024-02-23T11:36:41;5.90;97.80
57242;DHT22;43095;53.302;5.786;2024-02-23T11:39:10;5.90;97.80
57242;DHT22;43095;53.302;5.786;2024-02-23T11:41:39;5.90;97.80
57242;DHT22;43095;53.302;5.786;2024-02-23T11:44:08;5.90;97.80
57242;DHT22;43095;53.302;5.786;2024-02-23T11:46:36;5.90;97.70
57242;DHT22;43095;53.302;5.786;2024-02-23T11:49:03;6.00;97.60
57242;DHT22;43095;53.302;5.786;2024-02-23T11:51:30;6.00;97.80
57242;DHT22;43095;53.302;5.786;2024-02-23T11:53:58;6.00;97.90
57242;DHT22;43095;53.302;5.786;2024-02-23T11:56:27;6.10;98.00
57242;DHT22;43095;53.302;5.786;2024-02-23T11:58:56;6.10;98.00
57242;DHT22;43095;53.302;5.786;2024-02-23T12:01:23;6.10;97.90
57242;DHT22;43095;53.302;5.786;2024-02-23T12:03:51;6.10;97.60
57242;DHT22;43095;53.302;5.786;2024-02-23T12:06:18;6.10;97.50
57242;DHT22;43095;53.302;5.786;2024-02-23T12:08:45;6.10;97.60
57242;DHT22;43095;53.302;5.786;2024-02-23T12:11:14;6.10;97.60
57242;DHT22;43095;53.302;5.786;2024-02-23T12:13:41;6.00;97.90
57242;DHT22;43095;53.302;5.786;2024-02-23T12:16:09;6.00;98.10
57242;DHT22;43095;53.302;5.786;2024-02-23T12:18:37;6.00;98.30
57242;DHT22;43095;53.302;5.786;2024-02-23T12:21:05;6.10;98.60
57242;DHT22;43095;53.302;5.786;2024-02-23T12:23:41;6.00;98.60
57242;DHT22;43095;53.302;5.786;2024-02-23T12:26:12;6.10;98.60
57242;DHT22;43095;53.302;5.786;2024-02-23T12:28:41;6.20;99.10
57242;DHT22;43095;53.302;5.786;2024-02-23T12:31:08;6.30;99.20
57242;DHT22;43095;53.302;5.786;2024-02-23T12:33:38;6.50;99.30
57242;DHT22;43095;53.302;5.786;2024-02-23T12:36:10;6.60;99.50
57242;DHT22;43095;53.302;5.786;2024-02-23T12:38:37;6.80;99.30
57242;DHT22;43095;53.302;5.786;2024-02-23T12:41:05;7.00;99.50
57242;DHT22;43095;53.302;5.786;2024-02-23T12:43:32;7.20;99.40
57242;DHT22;43095;53.302;5.786;2024-02-23T12:46:00;7.40;98.20
57242;DHT22;43095;53.302;5.786;2024-02-23T12:48:29;7.50;97.20
57242;DHT22;43095;53.302;5.786;2024-02-23T12:50:57;7.60;96.50
57242;DHT22;43095;53.302;5.786;2024-02-23T12:53:37;7.60;95.90
57242;DHT22;43095;53.302;5.786;2024-02-23T12:56:10;7.50;95.30
57242;DHT22;43095;53.302;5.786;2024-02-23T12:58:39;7.50;94.70
57242;DHT22;43095;53.302;5.786;2024-02-23T13:01:08;7.30;94.30
57242;DHT22;43095;53.302;5.786;2024-02-23T13:03:38;7.30;94.90
57242;DHT22;43095;53.302;5.786;2024-02-23T13:06:09;7.40;94.90
57242;DHT22;43095;53.302;5.786;2024-02-23T13:08:37;7.50;94.50
57242;DHT22;43095;53.302;5.786;2024-02-23T13:11:06;7.60;94.40
57242;DHT22;43095;53.302;5.786;2024-02-23T13:13:34;7.50;93.60
57242;DHT22;43095;53.302;5.786;2024-02-23T13:16:01;7.50;93.70
57242;DHT22;43095;53.302;5.786;2024-02-23T13:18:29;7.50;93.10
57242;DHT22;43095;53.302;5.786;2024-02-23T13:20:56;7.40;93.20
57242;DHT22;43095;53.302;5.786;2024-02-23T13:23:24;7.20;93.50
57242;DHT22;43095;53.302;5.786;2024-02-23T13:25:51;7.30;94.20
57242;DHT22;43095;53.302;5.786;2024-02-23T13:28:19;7.50;94.40
57242;DHT22;43095;53.302;5.786;2024-02-23T13:30:46;7.60;94.10
57242;DHT22;43095;53.302;5.786;2024-02-23T13:33:13;7.80;93.90
57242;DHT22;43095;53.302;5.786;2024-02-23T13:35:43;8.00;92.80
57242;DHT22;43095;53.302;5.786;2024-02-23T13:38:10;8.00;91.90
57242;DHT22;43095;53.302;5.786;2024-02-23T13:40:38;7.80;90.50
57242;DHT22;43095;53.302;5.786;2024-02-23T13:43:05;7.70;89.90
57242;DHT22;43095;53.302;5.786;2024-02-23T13:45:33;7.50;90.00
57242;DHT22;43095;53.302;5.786;2024-02-23T13:48:02;7.50;90.00
57242;DHT22;43095;53.302;5.786;2024-02-23T13:50:32;7.50;90.40
57242;DHT22;43095;53.302;5.786;2024-02-23T13:53:03;7.60;90.10
57242;DHT22;43095;53.302;5.786;2024-02-23T13:55:30;7.80;90.10
57242;DHT22;43095;53.302;5.786;2024-02-23T13:57:57;8.00;89.60
57242;DHT22;43095;53.302;5.786;2024-02-23T14:00:25;8.00;88.50
57242;DHT22;43095;53.302;5.786;2024-02-23T14:02:52;8.00;87.10
57242;DHT22;43095;53.302;5.786;2024-02-23T14:05:20;8.10;86.90
57242;DHT22;43095;53.302;5.786;2024-02-23T14:07:49;8.20;86.40
57242;DHT22;43095;53.302;5.786;2024-02-23T14:10:16;8.20;85.80
57242;DHT22;43095;53.302;5.786;2024-02-23T14:12:43;8.30;84.90
57242;DHT22;43095;53.302;5.786;2024-02-23T14:15:10;8.30;84.00
57242;DHT22;43095;53.302;5.786;2024-02-23T14:17:39;8.10;82.70
57242;DHT22;43095;53.302;5.786;2024-02-23T14:20:12;8.00;83.00
57242;DHT22;43095;53.302;5.786;2024-02-23T14:22:42;7.90;83.60
57242;DHT22;43095;53.302;5.786;2024-02-23T14:25:09;7.80;83.70
57242;DHT22;43095;53.302;5.786;2024-02-23T14:27:36;7.60;83.70
57242;DHT22;43095;53.302;5.786;2024-02-23T14:30:07;7.50;84.30
57242;DHT22;43095;53.302;5.786;2024-02-23T14:32:35;7.50;85.30
57242;DHT22;43095;53.302;5.786;2024-02-23T14:35:03;7.30;86.10
57242;DHT22;43095;53.302;5.786;2024-02-23T14:37:31;7.20;86.80
57242;DHT22;43095;53.302;5.786;2024-02-23T14:39:59;7.30;88.60
57242;DHT22;43095;53.302;5.786;2024-02-23T14:42:26;7.70;89.20
57242;DHT22;43095;53.302;5.786;2024-02-23T14:44:54;8.00;87.60
57242;DHT22;43095;53.302;5.786;2024-02-23T14:47:21;8.00;87.30
57242;DHT22;43095;53.302;5.786;2024-02-23T14:50:01;8.00;86.60
57242;DHT22;43095;53.302;5.786;2024-02-23T14:52:30;8.20;85.70
57242;DHT22;43095;53.302;5.786;2024-02-23T14:54:57;8.40;85.40
57242;DHT22;43095;53.302;5.786;2024-02-23T14:57:24;8.50;83.80
57242;DHT22;43095;53.302;5.786;2024-02-23T14:59:52;8.30;82.80
57242;DHT22;43095;53.302;5.786;2024-02-23T15:02:20;8.20;83.70
57242;DHT22;43095;53.302;5.786;2024-02-23T15:04:49;8.40;84.00
57242;DHT22;43095;53.302;5.786;2024-02-23T15:07:16;8.60;83.50
57242;DHT22;43095;53.302;5.786;2024-02-23T15:09:44;8.90;83.00
57242;DHT22;43095;53.302;5.786;2024-02-23T15:12:12;9.10;82.50
57242;DHT22;43095;53.302;5.786;2024-02-23T15:14:41;9.20;81.80
57242;DHT22;43095;53.302;5.786;2024-02-23T15:17:08;9.30;81.10
57242;DHT22;43095;53.302;5.786;2024-02-23T15:19:35;9.30;81.00
57242;DHT22;43095;53.302;5.786;2024-02-23T15:22:03;9.20;80.80
57242;DHT22;43095;53.302;5.786;2024-02-23T15:24:35;9.20;80.50
57242;DHT22;43095;53.302;5.786;2024-02-23T15:27:02;9.20;80.30
57242;DHT22;43095;53.302;5.786;2024-02-23T15:29:30;9.00;80.00
57242;DHT22;43095;53.302;5.786;2024-02-23T15:31:57;8.80;80.30
57242;DHT22;43095;53.302;5.786;2024-02-23T15:34:25;8.50;80.90
57242;DHT22;43095;53.302;5.786;2024-02-23T15:36:52;8.30;81.50
57242;DHT22;43095;53.302;5.786;2024-02-23T15:39:21;8.10;82.10
57242;DHT22;43095;53.302;5.786;2024-02-23T15:41:49;8.00;82.50
57242;DHT22;43095;53.302;5.786;2024-02-23T15:44:16;8.00;82.80
57242;DHT22;43095;53.302;5.786;2024-02-23T15:46:44;7.80;83.00
57242;DHT22;43095;53.302;5.786;2024-02-23T15:49:12;7.70;83.50
57242;DHT22;43095;53.302;5.786;2024-02-23T15:52:00;7.60;83.70